createdAt,value
2023-05-21T00:01:50.015Z,13.00
2023-05-21T00:04:18.088Z,13.00
2023-05-21T00:06:46.108Z,13.00
2023-05-21T00:09:14.128Z,12.90
2023-05-21T00:11:42.328Z,12.90
2023-05-21T00:14:11.711Z,12.90
2023-05-21T00:16:39.751Z,12.90
2023-05-21T00:19:08.172Z,12.80
2023-05-21T00:21:36.211Z,12.80
2023-05-21T00:24:04.205Z,12.80
2023-05-21T00:26:32.260Z,12.70
2023-05-21T00:29:01.379Z,12.70
2023-05-21T00:31:32.260Z,12.70
2023-05-21T00:34:00.718Z,12.70
2023-05-21T00:36:31.250Z,12.60
2023-05-21T00:38:59.320Z,12.60
2023-05-21T00:41:27.353Z,12.60
2023-05-21T00:43:56.025Z,12.60
2023-05-21T00:46:24.717Z,12.60
2023-05-21T00:48:54.206Z,12.50
2023-05-21T00:51:22.494Z,12.50
2023-05-21T00:53:52.560Z,12.50
2023-05-21T00:56:21.862Z,12.50
2023-05-21T00:58:51.816Z,12.40
2023-05-21T01:01:20.121Z,12.40
2023-05-21T01:03:48.802Z,12.30
2023-05-21T01:06:20.677Z,12.40
2023-05-21T01:08:50.783Z,12.30
2023-05-21T01:11:19.743Z,12.30
2023-05-21T01:13:48.377Z,12.30
2023-05-21T01:16:17.712Z,12.30
2023-05-21T01:18:46.651Z,12.40
2023-05-21T01:21:17.538Z,12.30
2023-05-21T01:23:47.218Z,12.20
2023-05-21T01:26:15.924Z,12.10
2023-05-21T01:28:44.116Z,12.10
2023-05-21T01:31:24.203Z,12.10
2023-05-21T01:33:57.168Z,12.10
2023-05-21T01:36:28.817Z,12.10
2023-05-21T01:39:04.450Z,12.20
2023-05-21T01:41:38.016Z,12.10
2023-05-21T01:44:08.291Z,12.10
2023-05-21T01:46:37.026Z,12.10
2023-05-21T01:49:06.967Z,12.10
2023-05-21T01:51:36.273Z,12.10
2023-05-21T01:54:05.722Z,12.10
2023-05-21T01:56:34.057Z,12.00
2023-05-21T01:59:02.259Z,12.10
2023-05-21T02:01:30.643Z,12.10
2023-05-21T02:03:59.222Z,12.10
2023-05-21T02:06:27.490Z,12.10
2023-05-21T02:08:55.676Z,12.10
2023-05-21T02:11:26.154Z,12.00
2023-05-21T02:13:54.506Z,12.00
2023-05-21T02:16:22.740Z,12.00
2023-05-21T02:18:53.819Z,12.00
2023-05-21T02:21:22.169Z,12.00
2023-05-21T02:23:50.246Z,12.00
2023-05-21T02:26:18.881Z,12.10
2023-05-21T02:28:48.287Z,12.00
2023-05-21T02:31:16.346Z,12.00
2023-05-21T02:33:44.488Z,12.00
2023-05-21T02:36:15.314Z,12.00
2023-05-21T02:38:43.753Z,12.00
2023-05-21T02:41:12.370Z,12.00
2023-05-21T02:43:40.986Z,12.10
2023-05-21T02:46:10.528Z,12.10
2023-05-21T02:48:38.538Z,12.00
2023-05-21T02:51:07.164Z,12.10
2023-05-21T02:53:35.491Z,12.10
2023-05-21T02:56:03.728Z,12.00
2023-05-21T02:58:31.981Z,12.10
2023-05-21T03:01:00.157Z,12.00
2023-05-21T03:03:31.971Z,12.00
2023-05-21T03:06:00.163Z,12.00
2023-05-21T03:08:28.416Z,12.00
2023-05-21T03:10:56.450Z,12.00
2023-05-21T03:13:24.977Z,12.00
2023-05-21T03:15:56.131Z,12.00
2023-05-21T03:18:24.207Z,12.00
2023-05-21T03:20:53.601Z,12.00
2023-05-21T03:23:21.699Z,12.00
2023-05-21T03:25:50.777Z,11.90
2023-05-21T03:28:19.652Z,11.90
2023-05-21T03:30:51.032Z,12.00
2023-05-21T03:33:39.307Z,11.90
2023-05-21T03:36:31.213Z,11.90
2023-05-21T03:38:59.373Z,11.90
2023-05-21T03:41:27.541Z,11.90
2023-05-21T03:44:01.397Z,11.90
2023-05-21T03:46:36.985Z,11.90
2023-05-21T03:49:26.725Z,12.00
2023-05-21T03:51:58.558Z,11.90
2023-05-21T03:54:27.445Z,11.90
2023-05-21T03:57:00.027Z,12.00
2023-05-21T03:59:29.282Z,12.00
2023-05-21T04:01:57.473Z,12.00
2023-05-21T04:04:25.617Z,12.00
2023-05-21T04:06:54.246Z,12.00
2023-05-21T04:09:25.110Z,12.00
2023-05-21T04:11:53.520Z,12.20
2023-05-21T04:14:21.547Z,12.20
2023-05-21T04:16:49.917Z,12.20
2023-05-21T04:19:17.979Z,12.20
2023-05-21T04:21:46.064Z,12.20
2023-05-21T04:24:16.082Z,12.20
2023-05-21T04:26:51.856Z,12.30
2023-05-21T04:29:21.160Z,12.30
2023-05-21T04:31:50.713Z,12.30
2023-05-21T04:34:18.851Z,12.30
2023-05-21T04:36:47.051Z,12.30
2023-05-21T04:39:16.656Z,12.30
2023-05-21T04:41:44.877Z,12.40
2023-05-21T04:44:15.416Z,12.50
2023-05-21T04:46:46.035Z,12.50
2023-05-21T04:49:14.310Z,12.40
2023-05-21T04:51:42.615Z,12.40
2023-05-21T04:54:10.808Z,12.30
2023-05-21T04:56:38.830Z,12.30
2023-05-21T04:59:07.192Z,12.50
2023-05-21T05:01:38.494Z,12.50
2023-05-21T05:04:06.870Z,12.50
2023-05-21T05:06:34.888Z,12.60
2023-05-21T05:09:02.915Z,12.70
2023-05-21T05:11:31.946Z,12.80
2023-05-21T05:13:59.987Z,12.80
2023-05-21T05:16:29.667Z,12.90
2023-05-21T05:18:59.722Z,13.00
2023-05-21T05:21:27.798Z,13.10
2023-05-21T05:23:56.145Z,13.20
2023-05-21T05:26:28.065Z,13.40
2023-05-21T05:28:56.970Z,13.40
2023-05-21T05:31:25.262Z,13.50
2023-05-21T05:33:54.564Z,13.50
2023-05-21T05:36:26.127Z,13.60
2023-05-21T05:38:54.178Z,13.60
2023-05-21T05:41:22.761Z,13.60
2023-05-21T05:43:51.565Z,13.60
2023-05-21T05:46:21.932Z,13.60
2023-05-21T05:48:49.966Z,13.70
2023-05-21T05:51:18.549Z,13.80
2023-05-21T05:53:48.502Z,13.80
2023-05-21T05:56:17.105Z,13.90
2023-05-21T05:58:45.262Z,13.90
2023-05-21T06:01:16.360Z,14.00
2023-05-21T06:03:45.123Z,14.20
2023-05-21T06:06:17.045Z,14.40
2023-05-21T06:08:46.264Z,14.80
2023-05-21T06:11:18.957Z,15.00
2023-05-21T06:13:47.245Z,15.20
2023-05-21T06:16:17.677Z,15.30
2023-05-21T06:18:45.739Z,15.30
2023-05-21T06:21:13.785Z,15.30
2023-05-21T06:23:41.843Z,15.50
2023-05-21T06:26:10.803Z,15.50
2023-05-21T06:28:40.224Z,15.60
2023-05-21T06:31:10.125Z,15.60
2023-05-21T06:33:39.628Z,15.50
2023-05-21T06:36:08.352Z,15.40
2023-05-21T06:38:36.494Z,15.30
2023-05-21T06:41:04.940Z,15.30
2023-05-21T06:43:56.803Z,15.20
2023-05-21T06:46:53.876Z,15.20
2023-05-21T06:49:21.885Z,15.10
2023-05-21T06:51:49.903Z,15.00
2023-05-21T06:54:18.026Z,15.00
2023-05-21T06:56:46.077Z,15.10
2023-05-21T06:59:17.529Z,15.10
2023-05-21T07:01:45.894Z,15.20
2023-05-21T07:04:14.698Z,15.40
2023-05-21T07:06:44.170Z,15.40
2023-05-21T07:09:12.995Z,15.40
2023-05-21T07:11:41.100Z,15.50
2023-05-21T07:14:10.684Z,15.70
2023-05-21T07:16:40.989Z,15.60
2023-05-21T07:19:09.799Z,15.60
2023-05-21T07:21:38.658Z,15.60
2023-05-21T07:24:08.673Z,15.70
2023-05-21T07:26:40.395Z,15.90
2023-05-21T07:29:08.635Z,16.00
2023-05-21T07:31:36.733Z,16.10
2023-05-21T07:34:06.377Z,16.20
2023-05-21T07:36:34.673Z,16.20
2023-05-21T07:39:03.738Z,16.60
2023-05-21T07:41:32.615Z,16.90
2023-05-21T07:44:04.203Z,17.10
2023-05-21T07:46:35.830Z,17.30
2023-05-21T07:49:06.237Z,17.40
2023-05-21T07:51:34.806Z,17.30
2023-05-21T07:54:03.781Z,17.60
2023-05-21T07:56:35.647Z,17.70
2023-05-21T07:59:04.386Z,18.00
2023-05-21T08:01:33.041Z,18.10
2023-05-21T08:04:05.770Z,18.20
2023-05-21T08:06:37.538Z,18.40
2023-05-21T08:09:06.264Z,18.70
2023-05-21T08:11:34.572Z,18.60
2023-05-21T08:14:02.876Z,18.60
2023-05-21T08:16:31.561Z,18.60
2023-05-21T08:18:59.826Z,18.60
2023-05-21T08:21:28.151Z,18.60
2023-05-21T08:23:59.975Z,18.70
2023-05-21T08:26:28.142Z,18.80
2023-05-21T08:28:56.221Z,18.80
2023-05-21T08:31:24.713Z,19.00
2023-05-21T08:33:53.083Z,19.10
2023-05-21T08:36:27.346Z,19.20
2023-05-21T08:39:02.075Z,19.30
2023-05-21T08:41:36.926Z,19.40
2023-05-21T08:44:09.330Z,19.60
2023-05-21T08:46:38.201Z,19.60
2023-05-21T08:49:06.244Z,19.60
2023-05-21T08:51:34.520Z,19.50
2023-05-21T08:54:05.656Z,19.60
2023-05-21T08:56:34.756Z,19.60
2023-05-21T08:59:03.810Z,19.80
2023-05-21T09:01:38.234Z,19.80
2023-05-21T09:04:20.834Z,19.60
2023-05-21T09:06:53.155Z,19.60
2023-05-21T09:09:45.320Z,19.90
2023-05-21T09:12:13.442Z,19.90
2023-05-21T09:14:43.044Z,19.90
2023-05-21T09:17:20.321Z,19.90
2023-05-21T09:20:12.087Z,19.90
2023-05-21T09:22:43.530Z,19.70
2023-05-21T09:25:14.833Z,19.80
2023-05-21T09:27:43.179Z,19.70
2023-05-21T09:30:13.265Z,19.60
2023-05-21T09:32:42.306Z,19.80
2023-05-21T09:35:12.688Z,19.80
2023-05-21T09:37:43.766Z,19.70
2023-05-21T09:40:16.151Z,19.80
2023-05-21T09:42:48.944Z,20.00
2023-05-21T09:45:20.796Z,20.10
2023-05-21T09:47:50.962Z,20.20
2023-05-21T09:50:21.559Z,20.50
2023-05-21T09:52:52.740Z,20.60
2023-05-21T09:55:24.335Z,20.50
2023-05-21T09:57:53.094Z,20.50
2023-05-21T10:00:22.864Z,20.70
2023-05-21T10:02:55.318Z,20.90
2023-05-21T10:05:28.366Z,21.00
2023-05-21T10:08:01.926Z,21.30
2023-05-21T10:10:32.736Z,21.30
2023-05-21T10:13:04.410Z,21.50
2023-05-21T10:15:39.169Z,21.80
2023-05-21T10:18:09.625Z,22.10
2023-05-21T10:20:38.801Z,22.10
2023-05-21T10:23:07.701Z,22.00
2023-05-21T10:25:37.966Z,22.10
2023-05-21T10:28:07.130Z,22.20
2023-05-21T10:30:37.355Z,22.30
2023-05-21T10:33:06.578Z,22.30
2023-05-21T10:35:35.396Z,22.30
2023-05-21T10:38:05.744Z,22.50
2023-05-21T10:40:34.160Z,22.40
2023-05-21T10:43:23.987Z,22.30
2023-05-21T10:46:12.367Z,22.40
2023-05-21T10:48:55.268Z,22.70
2023-05-21T10:51:26.392Z,23.00
2023-05-21T10:54:33.375Z,23.20
2023-05-21T10:57:11.746Z,23.30
2023-05-21T10:59:44.900Z,23.50
2023-05-21T11:02:15.623Z,23.70
2023-05-21T11:04:48.874Z,23.90
2023-05-21T11:07:24.588Z,24.00
2023-05-21T11:09:52.816Z,23.80
2023-05-21T11:12:23.162Z,23.90
2023-05-21T11:14:58.900Z,24.00
2023-05-21T11:17:42.045Z,24.00
2023-05-21T11:20:13.458Z,24.10
2023-05-21T11:22:41.468Z,23.90
2023-05-21T11:25:09.845Z,24.00
2023-05-21T11:27:39.118Z,24.10
2023-05-21T11:30:10.034Z,23.90
2023-05-21T11:32:39.891Z,24.10
2023-05-21T11:35:09.102Z,24.20
2023-05-21T11:37:40.528Z,24.40
2023-05-21T11:40:26.635Z,24.10
2023-05-21T11:42:55.699Z,24.10
2023-05-21T11:45:29.322Z,24.10
2023-05-21T11:47:57.605Z,23.90
2023-05-21T11:50:27.286Z,23.90
2023-05-21T11:52:55.997Z,23.90
2023-05-21T11:55:25.854Z,24.10
2023-05-21T11:57:55.374Z,24.10
2023-05-21T12:00:25.104Z,24.30
2023-05-21T12:02:55.763Z,24.50
2023-05-21T12:05:26.349Z,24.70
2023-05-21T12:07:56.375Z,24.80
2023-05-21T12:10:24.683Z,24.70
2023-05-21T12:12:56.887Z,24.80
2023-05-21T12:15:27.693Z,24.80
2023-05-21T12:17:56.709Z,25.00
2023-05-21T12:20:27.054Z,25.20
2023-05-21T12:22:55.184Z,25.40
2023-05-21T12:25:23.463Z,25.50
2023-05-21T12:27:57.659Z,25.40
2023-05-21T12:30:27.721Z,25.40
2023-05-21T12:32:59.491Z,25.50
2023-05-21T12:35:27.846Z,25.50
2023-05-21T12:37:56.604Z,25.30
2023-05-21T12:40:37.122Z,25.40
2023-05-21T12:43:06.034Z,25.70
2023-05-21T12:45:36.700Z,25.60
2023-05-21T12:48:04.873Z,25.50
2023-05-21T12:50:35.472Z,25.60
2023-05-21T12:53:03.838Z,25.50
2023-05-21T12:55:32.896Z,25.60
2023-05-21T12:58:07.816Z,25.60
2023-05-21T13:00:37.503Z,25.60
2023-05-21T13:03:06.553Z,25.70
2023-05-21T13:05:35.467Z,25.70
2023-05-21T13:08:03.656Z,25.60
2023-05-21T13:10:31.705Z,25.50
2023-05-21T13:13:00.188Z,25.40
2023-05-21T13:15:28.236Z,25.40
2023-05-21T13:18:01.065Z,25.30
2023-05-21T13:20:29.620Z,25.30
2023-05-21T13:22:57.851Z,25.40
2023-05-21T13:25:29.485Z,25.30
2023-05-21T13:27:58.516Z,25.40
2023-05-21T13:30:26.577Z,25.40
2023-05-21T13:32:54.988Z,25.40
2023-05-21T13:35:24.541Z,25.40
2023-05-21T13:37:52.528Z,25.40
2023-05-21T13:40:20.722Z,25.40
2023-05-21T13:42:49.830Z,25.40
2023-05-21T13:45:19.757Z,25.50
2023-05-21T13:47:49.118Z,25.50
2023-05-21T13:50:17.544Z,25.50
2023-05-21T13:52:47.310Z,25.30
2023-05-21T13:55:16.695Z,25.20
2023-05-21T13:57:44.785Z,25.20
2023-05-21T14:00:15.537Z,25.40
2023-05-21T14:02:44.357Z,25.40
2023-05-21T14:05:13.371Z,25.30
2023-05-21T14:07:42.035Z,25.40
2023-05-21T14:10:12.313Z,25.40
2023-05-21T14:12:40.723Z,25.60
2023-05-21T14:15:09.841Z,25.60
2023-05-21T14:17:40.211Z,25.50
2023-05-21T14:20:09.968Z,25.40
2023-05-21T14:22:38.655Z,25.30
2023-05-21T14:25:07.479Z,25.40
2023-05-21T14:27:38.409Z,25.30
2023-05-21T14:30:07.581Z,25.30
2023-05-21T14:32:36.416Z,25.40
2023-05-21T14:35:05.812Z,25.50
2023-05-21T14:37:33.878Z,25.40
2023-05-21T14:40:01.858Z,25.40
2023-05-21T14:42:30.672Z,25.40
2023-05-21T14:45:16.949Z,25.50
2023-05-21T14:47:47.650Z,25.40
2023-05-21T14:50:17.610Z,25.60
2023-05-21T14:52:45.797Z,25.60
2023-05-21T14:55:16.408Z,25.60
2023-05-21T14:57:44.409Z,25.60
2023-05-21T15:00:15.100Z,25.60
2023-05-21T15:02:43.345Z,25.60
2023-05-21T15:05:11.546Z,25.70
2023-05-21T15:07:39.561Z,25.70
2023-05-21T15:10:09.129Z,25.80
2023-05-21T15:12:37.141Z,25.70
2023-05-21T15:15:05.924Z,25.70
2023-05-21T15:17:35.829Z,25.70
2023-05-21T15:20:04.704Z,25.70
2023-05-21T15:22:32.756Z,25.60
2023-05-21T15:25:01.448Z,25.60
2023-05-21T15:27:29.519Z,25.60
2023-05-21T15:29:57.538Z,25.60
2023-05-21T15:32:25.620Z,25.50
2023-05-21T15:34:55.243Z,25.50
2023-05-21T15:37:23.476Z,25.60
2023-05-21T15:39:53.285Z,25.40
2023-05-21T15:42:21.373Z,25.40
2023-05-21T15:44:49.635Z,25.40
2023-05-21T15:47:17.678Z,25.30
2023-05-21T15:49:45.772Z,25.30
2023-05-21T15:52:15.131Z,25.40
2023-05-21T15:54:43.156Z,25.40
2023-05-21T15:57:11.373Z,25.40
2023-05-21T15:59:39.446Z,25.30
2023-05-21T16:02:07.476Z,25.30
2023-05-21T16:04:35.507Z,25.40
2023-05-21T16:07:03.532Z,25.40
2023-05-21T16:09:32.843Z,25.30
2023-05-21T16:12:00.878Z,25.30
2023-05-21T16:14:29.299Z,25.30
2023-05-21T16:16:57.453Z,25.20
2023-05-21T16:19:25.596Z,25.20
2023-05-21T16:21:53.724Z,25.10
2023-05-21T16:24:21.717Z,25.10
2023-05-21T16:26:51.056Z,25.00
2023-05-21T16:29:19.327Z,25.00
2023-05-21T16:31:48.699Z,25.10
2023-05-21T16:34:16.744Z,25.10
2023-05-21T16:36:44.789Z,25.00
2023-05-21T16:39:12.776Z,24.90
2023-05-21T16:41:40.802Z,25.00
2023-05-21T16:44:10.186Z,24.90
2023-05-21T16:46:38.503Z,25.00
2023-05-21T16:49:06.764Z,25.00
2023-05-21T16:51:35.632Z,25.00
2023-05-21T16:54:04.848Z,24.80
2023-05-21T16:56:32.855Z,24.80
2023-05-21T16:59:00.893Z,24.70
2023-05-21T17:01:30.678Z,24.70
2023-05-21T17:03:59.011Z,24.60
2023-05-21T17:06:27.622Z,24.60
2023-05-21T17:08:56.375Z,24.40
2023-05-21T17:11:24.515Z,24.40
2023-05-21T17:13:52.636Z,24.40
2023-05-21T17:16:20.899Z,24.40
2023-05-21T17:18:50.430Z,24.40
2023-05-21T17:21:19.286Z,24.40
2023-05-21T17:23:47.397Z,24.40
2023-05-21T17:26:15.473Z,24.30
2023-05-21T17:28:43.795Z,24.20
2023-05-21T17:31:11.847Z,24.20
2023-05-21T17:33:40.747Z,24.20
2023-05-21T17:36:10.163Z,24.20
2023-05-21T17:38:38.565Z,24.20
2023-05-21T17:41:06.824Z,24.20
2023-05-21T17:43:34.859Z,24.10
2023-05-21T17:46:02.840Z,24.10
2023-05-21T17:48:30.878Z,24.10
2023-05-21T17:50:59.586Z,24.10
2023-05-21T17:53:31.330Z,24.10
2023-05-21T17:55:59.442Z,24.10
2023-05-21T17:58:27.592Z,24.00
2023-05-21T18:00:55.900Z,23.90
2023-05-21T18:03:23.937Z,23.90
2023-05-21T18:05:52.006Z,23.80
2023-05-21T18:08:20.051Z,23.70
2023-05-21T18:10:49.470Z,23.70
2023-05-21T18:13:17.497Z,23.60
2023-05-21T18:15:45.556Z,23.60
2023-05-21T18:18:19.778Z,23.60
2023-05-21T18:20:48.797Z,23.50
2023-05-21T18:23:16.817Z,23.50
2023-05-21T18:25:44.963Z,23.40
2023-05-21T18:28:14.333Z,23.30
2023-05-21T18:30:42.325Z,23.20
2023-05-21T18:33:11.175Z,23.10
2023-05-21T18:35:39.325Z,23.10
2023-05-21T18:38:09.798Z,23.00
2023-05-21T18:40:38.323Z,23.00
2023-05-21T18:43:06.501Z,22.90
2023-05-21T18:45:35.891Z,22.90
2023-05-21T18:48:04.094Z,22.80
2023-05-21T18:50:34.108Z,22.70
2023-05-21T18:53:02.458Z,22.70
2023-05-21T18:55:30.504Z,22.60
2023-05-21T18:57:58.666Z,22.50
2023-05-21T19:00:26.680Z,22.40
2023-05-21T19:02:56.255Z,22.40
2023-05-21T19:05:24.387Z,22.30
2023-05-21T19:07:52.590Z,22.20
2023-05-21T19:10:20.845Z,22.20
2023-05-21T19:12:48.953Z,22.10
2023-05-21T19:15:17.200Z,22.10
2023-05-21T19:17:45.242Z,22.10
2023-05-21T19:20:24.051Z,22.00
2023-05-21T19:22:52.246Z,21.90
2023-05-21T19:25:20.551Z,21.90
2023-05-21T19:27:48.740Z,21.80
2023-05-21T19:30:16.964Z,21.70
2023-05-21T19:32:45.073Z,21.70
2023-05-21T19:35:13.134Z,21.70
2023-05-21T19:37:42.492Z,21.60
2023-05-21T19:40:11.492Z,21.60
2023-05-21T19:42:39.497Z,21.50
2023-05-21T19:45:09.648Z,21.50
2023-05-21T19:47:40.932Z,21.50
2023-05-21T19:50:11.364Z,21.50
2023-05-21T19:52:39.454Z,21.40
2023-05-21T19:55:10.023Z,21.40
2023-05-21T19:57:39.601Z,21.30
2023-05-21T20:00:10.256Z,21.30
2023-05-21T20:02:41.627Z,21.30
2023-05-21T20:05:10.835Z,21.30
2023-05-21T20:07:38.963Z,21.20
2023-05-21T20:10:09.676Z,21.20
2023-05-21T20:12:37.932Z,21.20
2023-05-21T20:15:07.332Z,21.10
2023-05-21T20:17:35.887Z,21.10
2023-05-21T20:20:11.080Z,21.10
2023-05-21T20:22:39.195Z,21.10
2023-05-21T20:25:10.536Z,21.00
2023-05-21T20:27:39.601Z,21.00
2023-05-21T20:30:08.837Z,21.00
2023-05-21T20:32:37.593Z,21.00
2023-05-21T20:35:09.885Z,20.90
2023-05-21T20:37:37.877Z,20.90
2023-05-21T20:40:09.112Z,20.90
2023-05-21T20:42:37.209Z,20.80
2023-05-21T20:45:05.682Z,20.80
2023-05-21T20:47:33.930Z,20.80
2023-05-21T20:50:03.236Z,20.80
2023-05-21T20:52:31.563Z,20.80
2023-05-21T20:54:59.997Z,20.80
2023-05-21T20:57:29.683Z,20.70
2023-05-21T20:59:57.860Z,20.70
2023-05-21T21:02:26.794Z,20.70
2023-05-21T21:04:54.966Z,20.70
2023-05-21T21:07:23.406Z,20.70
2023-05-21T21:09:51.471Z,20.60
2023-05-21T21:12:25.153Z,20.60
2023-05-21T21:14:55.815Z,20.60
2023-05-21T21:17:24.018Z,20.60
2023-05-21T21:19:52.012Z,20.60
2023-05-21T21:22:20.212Z,20.50
2023-05-21T21:24:48.567Z,20.50
2023-05-21T21:27:16.646Z,20.50
2023-05-21T21:29:44.660Z,20.50
2023-05-21T21:32:14.182Z,20.40
2023-05-21T21:34:42.178Z,20.30
2023-05-21T21:37:10.448Z,20.30
2023-05-21T21:39:38.968Z,20.30
2023-05-21T21:42:07.328Z,20.30
2023-05-21T21:44:35.343Z,20.20
2023-05-21T21:47:03.360Z,20.20
2023-05-21T21:49:32.769Z,20.20
2023-05-21T21:52:01.377Z,20.20
2023-05-21T21:54:29.489Z,20.20
2023-05-21T21:56:57.497Z,20.20
2023-05-21T21:59:25.505Z,20.20
2023-05-21T22:01:53.604Z,20.10
2023-05-21T22:04:21.597Z,20.10
2023-05-21T22:06:51.831Z,20.10
2023-05-21T22:09:22.329Z,20.10
2023-05-21T22:11:50.791Z,20.10
2023-05-21T22:14:19.391Z,20.00
2023-05-21T22:16:48.386Z,20.00
2023-05-21T22:19:20.398Z,20.00
2023-05-21T22:21:50.465Z,20.00
2023-05-21T22:24:31.460Z,20.00
2023-05-21T22:27:01.181Z,19.90
2023-05-21T22:29:29.177Z,19.90
2023-05-21T22:31:57.228Z,19.80
2023-05-21T22:34:25.631Z,19.80
2023-05-21T22:36:55.037Z,19.70
2023-05-21T22:39:23.037Z,19.70
2023-05-21T22:41:51.178Z,19.70
2023-05-21T22:44:19.209Z,19.60
2023-05-21T22:46:47.735Z,19.60
2023-05-21T22:49:16.359Z,19.50
2023-05-21T22:51:44.904Z,19.50
2023-05-21T22:54:14.404Z,19.40
2023-05-21T22:56:42.434Z,19.40
2023-05-21T22:59:10.445Z,19.40
2023-05-21T23:01:38.733Z,19.30
2023-05-21T23:04:06.947Z,19.30
2023-05-21T23:06:34.968Z,19.30
2023-05-21T23:09:02.980Z,19.20
2023-05-21T23:11:32.359Z,19.20
2023-05-21T23:14:00.543Z,19.20
2023-05-21T23:16:30.647Z,19.10
2023-05-21T23:18:58.815Z,19.10
2023-05-21T23:21:26.904Z,19.10
2023-05-21T23:23:54.906Z,19.00
2023-05-21T23:26:22.937Z,19.00
2023-05-21T23:28:52.343Z,19.00
2023-05-21T23:31:20.358Z,18.90
2023-05-21T23:33:48.925Z,18.90
2023-05-21T23:36:16.907Z,18.80
2023-05-21T23:38:44.918Z,18.80
2023-05-21T23:41:12.958Z,18.70
2023-05-21T23:43:41.368Z,18.70
2023-05-21T23:46:10.773Z,18.70
2023-05-21T23:48:38.864Z,18.70
2023-05-21T23:51:06.872Z,18.70
2023-05-21T23:53:34.852Z,18.60
2023-05-21T23:56:02.862Z,18.60
2023-05-21T23:58:30.930Z,18.50
